Time;durP1;ratioP1;P1;durP2;ratioP2;P2;SDS_P1;SDS_P2;PMS_P1;PMS_P2;Temp;Humidity;BMP_temperature;BMP_pressure;BME280_temperature;BME280_humidity;BME280_pressure;Samples;Min_cycle;Max_cycle;Signal;HPM_P1;HPM_P2
2023/05/09 00:01:55;;;;;;;43.40;18.02;;;15.40;99.90;;;;;;4244675;28;20043;-87
2023/05/09 00:03:58;;;;;;;44.08;20.10;;;15.40;99.90;;;;;;4222710;28;20052;-87
2023/05/09 00:06:00;;;;;;;39.30;18.05;;;15.40;99.90;;;;;;4239349;27;20061;-86
2023/05/09 00:08:00;;;;;;;37.05;18.17;;;15.40;99.90;;;;;;4248377;27;20088;-87
2023/05/09 00:10:01;;;;;;;43.45;18.60;;;15.40;99.90;;;;;;4243806;27;20505;-86
2023/05/09 00:12:03;;;;;;;45.88;19.58;;;15.40;99.90;;;;;;4238681;27;20211;-87
2023/05/09 00:14:03;;;;;;;37.88;17.45;;;15.40;99.90;;;;;;4242897;27;20047;-87
2023/05/09 00:16:05;;;;;;;47.63;19.65;;;15.40;99.90;;;;;;4238682;27;20471;-87
2023/05/09 00:18:05;;;;;;;47.80;18.70;;;15.40;99.90;;;;;;4247104;27;20046;-86
2023/05/09 00:20:11;;;;;;;42.78;18.02;;;15.30;99.90;;;;;;4230912;28;20043;-86
2023/05/09 00:22:11;;;;;;;46.35;19.60;;;15.30;99.90;;;;;;4246944;27;20043;-86
2023/05/09 00:24:13;;;;;;;41.45;18.92;;;15.20;99.90;;;;;;4208670;28;20098;-86
2023/05/09 00:26:15;;;;;;;43.88;18.13;;;15.20;99.90;;;;;;4240564;27;20052;-86
2023/05/09 00:28:16;;;;;;;45.05;18.55;;;15.20;99.90;;;;;;4240492;27;20040;-86
2023/05/09 00:30:17;;;;;;;44.50;18.58;;;15.30;99.90;;;;;;4238288;27;20394;-86
2023/05/09 00:32:18;;;;;;;43.65;19.23;;;15.30;99.90;;;;;;4242322;27;20122;-86
2023/05/09 00:34:19;;;;;;;44.05;19.55;;;15.20;99.90;;;;;;4246756;27;20529;-86
2023/05/09 00:36:20;;;;;;;44.50;19.10;;;15.20;99.90;;;;;;4225356;28;20047;-86
2023/05/09 00:38:22;;;;;;;50.05;18.60;;;15.20;99.90;;;;;;4221459;28;20095;-86
2023/05/09 00:40:24;;;;;;;44.08;18.50;;;15.10;99.90;;;;;;4237997;27;20067;-86
2023/05/09 00:42:25;;;;;;;43.85;18.15;;;15.10;99.90;;;;;;4210975;28;20043;-86
2023/05/09 00:44:26;;;;;;;43.90;18.73;;;15.10;99.90;;;;;;4243326;27;20085;-86
2023/05/09 00:46:28;;;;;;;45.33;19.15;;;15.10;99.90;;;;;;4238159;27;20039;-86
2023/05/09 00:48:29;;;;;;;51.97;20.52;;;15.50;99.90;;;;;;4210809;28;20051;-86
2023/05/09 00:50:30;;;;;;;43.35;19.30;;;15.10;99.90;;;;;;4225038;28;20036;-86
2023/05/09 00:52:32;;;;;;;46.10;20.02;;;15.10;99.90;;;;;;4238361;27;20035;-86
2023/05/09 00:54:33;;;;;;;46.58;19.75;;;15.10;99.90;;;;;;4217157;28;20079;-86
2023/05/09 00:56:33;;;;;;;50.05;21.05;;;15.10;99.90;;;;;;4237400;27;20054;-86
2023/05/09 00:58:34;;;;;;;48.28;20.80;;;15.10;99.90;;;;;;4237884;27;20132;-86
2023/05/09 01:00:36;;;;;;;49.45;20.52;;;15.10;99.90;;;;;;4235801;27;20044;-86
2023/05/09 01:02:42;;;;;;;48.30;21.00;;;15.10;99.90;;;;;;4238045;27;20047;-86
2023/05/09 01:04:45;;;;;;;50.03;19.67;;;15.10;99.90;;;;;;4228012;28;20039;-86
2023/05/09 01:07:08;;;;;;;46.08;19.77;;;15.10;99.90;;;;;;4251234;27;20050;-85
2023/05/09 01:09:09;;;;;;;47.53;20.17;;;15.10;99.90;;;;;;4240090;27;20089;-86
2023/05/09 01:11:26;;;;;;;46.88;19.73;;;15.10;99.90;;;;;;4238955;27;20473;-86
2023/05/09 01:13:37;;;;;;;47.58;19.55;;;15.10;99.90;;;;;;4238262;27;20047;-86
2023/05/09 01:15:37;;;;;;;45.70;20.05;;;15.00;99.90;;;;;;4247794;27;20062;-87
2023/05/09 01:17:57;;;;;;;48.28;20.25;;;15.00;99.90;;;;;;4241167;27;20032;-86
2023/05/09 01:19:57;;;;;;;;;;;15.00;99.90;;;;;;4247593;27;20433;-86
2023/05/09 01:22:03;;;;;;;43.83;18.88;;;15.00;99.90;;;;;;4219487;28;19930;-86
2023/05/09 01:24:08;;;;;;;42.25;18.40;;;15.00;99.90;;;;;;4236249;27;20499;-86
2023/05/09 01:26:25;;;;;;;45.88;18.60;;;15.00;99.90;;;;;;4247459;27;20028;-86
2023/05/09 01:28:41;;;;;;;48.38;20.75;;;15.00;99.90;;;;;;4203999;28;20079;-86
2023/05/09 01:30:45;;;;;;;41.88;18.77;;;15.00;99.90;;;;;;4237050;27;20216;-86
2023/05/09 01:32:50;;;;;;;41.00;19.40;;;15.00;99.90;;;;;;4237686;27;20042;-86
2023/05/09 01:34:53;;;;;;;49.10;19.60;;;15.00;99.90;;;;;;4220405;28;20490;-86
2023/05/09 01:36:59;;;;;;;44.08;18.95;;;15.00;99.90;;;;;;4241160;27;20471;-86
2023/05/09 01:39:03;;;;;;;46.60;18.10;;;15.00;99.90;;;;;;4243822;27;20023;-86
2023/05/09 01:41:05;;;;;;;45.90;19.50;;;15.00;99.90;;;;;;4237035;27;20377;-86
2023/05/09 01:43:08;;;;;;;46.97;18.67;;;15.00;99.90;;;;;;4238336;27;20112;-86
2023/05/09 01:45:11;;;;;;;40.95;19.05;;;15.00;99.90;;;;;;4239512;27;20055;-86
2023/05/09 01:47:15;;;;;;;46.70;19.15;;;15.00;99.90;;;;;;4245557;27;20109;-85
2023/05/09 01:49:17;;;;;;;46.45;19.15;;;15.00;99.90;;;;;;4224940;28;20108;-86
2023/05/09 01:51:19;;;;;;;46.65;19.70;;;15.10;99.90;;;;;;4238984;27;20137;-85
2023/05/09 01:53:23;;;;;;;42.63;17.98;;;15.00;99.90;;;;;;4244140;27;20530;-86
2023/05/09 01:55:25;;;;;;;46.90;19.02;;;15.00;99.90;;;;;;4242205;27;20040;-86
2023/05/09 01:57:29;;;;;;;45.83;20.17;;;15.00;99.90;;;;;;4237957;27;20514;-86
2023/05/09 01:59:31;;;;;;;47.28;19.98;;;15.00;99.90;;;;;;4237559;27;20048;-86
2023/05/09 02:01:33;;;;;;;46.03;18.63;;;15.00;99.90;;;;;;4227309;28;20140;-86
2023/05/09 02:03:37;;;;;;;47.33;19.63;;;15.00;99.90;;;;;;4247423;27;20046;-86
2023/05/09 02:05:38;;;;;;;49.97;20.42;;;15.00;99.90;;;;;;4241413;27;20044;-86
2023/05/09 02:07:41;;;;;;;43.97;18.30;;;15.00;99.90;;;;;;4242910;27;20039;-86
2023/05/09 02:09:44;;;;;;;46.90;19.15;;;15.00;99.90;;;;;;4246975;27;20070;-86
2023/05/09 02:11:45;;;;;;;44.85;19.23;;;15.00;99.90;;;;;;4245061;27;20480;-86
2023/05/09 02:13:47;;;;;;;44.13;18.75;;;15.00;99.90;;;;;;4223704;28;20059;-86
2023/05/09 02:15:48;;;;;;;44.60;20.02;;;14.90;99.90;;;;;;4240418;27;20537;-86
2023/05/09 02:17:48;;;;;;;50.67;19.50;;;14.90;99.90;;;;;;4241248;27;20043;-85
2023/05/09 02:19:49;;;;;;;46.25;19.98;;;14.90;99.90;;;;;;4239479;27;20387;-86
2023/05/09 02:21:51;;;;;;;55.38;19.90;;;14.90;99.90;;;;;;4221592;28;20043;-85
2023/05/09 02:23:52;;;;;;;47.05;19.30;;;14.90;99.90;;;;;;4240139;27;20404;-86
2023/05/09 02:25:53;;;;;;;45.22;18.90;;;14.90;99.90;;;;;;4241135;27;20097;-86
2023/05/09 02:27:56;;;;;;;48.42;19.67;;;14.90;99.90;;;;;;4237087;27;20043;-86
2023/05/09 02:30:01;;;;;;;52.17;21.05;;;15.00;99.90;;;;;;4236914;27;20540;-86
2023/05/09 02:32:03;;;;;;;49.63;19.65;;;15.00;99.90;;;;;;4237132;27;20072;-86
2023/05/09 02:34:06;;;;;;;48.25;20.52;;;15.00;99.90;;;;;;4223731;28;20093;-86
2023/05/09 02:36:08;;;;;;;48.78;20.88;;;15.00;99.90;;;;;;4244100;27;20054;-86
2023/05/09 02:38:09;;;;;;;50.33;21.63;;;15.00;99.90;;;;;;4231525;28;20059;-87
2023/05/09 02:40:11;;;;;;;57.00;20.70;;;15.00;99.90;;;;;;4244301;27;20039;-86
2023/05/09 02:42:16;;;;;;;51.63;20.75;;;15.00;99.90;;;;;;4241739;27;20055;-86
2023/05/09 02:44:17;;;;;;;50.78;20.55;;;15.00;99.90;;;;;;4242516;27;20037;-86
2023/05/09 02:46:18;;;;;;;48.25;20.92;;;15.00;99.90;;;;;;4241084;27;20070;-86
2023/05/09 02:48:19;;;;;;;46.53;19.55;;;15.00;99.90;;;;;;4223773;28;20136;-86
2023/05/09 02:50:19;;;;;;;52.20;21.85;;;15.00;99.90;;;;;;4243476;27;20039;-87
2023/05/09 02:52:20;;;;;;;56.33;20.73;;;15.00;99.90;;;;;;4208493;28;20082;-86
2023/05/09 02:54:21;;;;;;;55.58;20.83;;;15.00;99.90;;;;;;4244869;27;20070;-86
2023/05/09 02:56:22;;;;;;;58.95;22.67;;;15.00;99.90;;;;;;4238162;27;20126;-87
2023/05/09 02:58:23;;;;;;;49.75;22.38;;;15.00;99.90;;;;;;4240127;27;20061;-87
2023/05/09 03:00:24;;;;;;;52.13;22.77;;;15.00;99.90;;;;;;4241111;27;20036;-87
2023/05/09 03:02:25;;;;;;;56.08;22.65;;;15.00;99.90;;;;;;4243577;27;20095;-87
2023/05/09 03:04:26;;;;;;;51.78;22.38;;;15.00;99.90;;;;;;4245383;27;20047;-86
2023/05/09 03:06:27;;;;;;;55.80;22.92;;;15.00;99.90;;;;;;4227422;28;20047;-87
2023/05/09 03:08:28;;;;;;;53.72;21.42;;;15.00;99.90;;;;;;4238425;27;20035;-86
2023/05/09 03:10:29;;;;;;;54.35;23.55;;;15.00;99.90;;;;;;4220287;28;20047;-87
2023/05/09 03:12:30;;;;;;;56.15;23.55;;;15.00;99.90;;;;;;4242358;27;20395;-87
2023/05/09 03:14:30;;;;;;;59.88;23.65;;;15.00;99.90;;;;;;4242265;27;20077;-87
2023/05/09 03:16:31;;;;;;;52.35;23.15;;;15.00;99.90;;;;;;4242728;27;20039;-87
2023/05/09 03:18:32;;;;;;;49.22;21.77;;;14.90;99.90;;;;;;4223254;28;20074;-86
2023/05/09 03:20:34;;;;;;;50.42;21.17;;;14.90;99.90;;;;;;4236882;27;20042;-86
2023/05/09 03:22:35;;;;;;;54.88;22.08;;;15.00;99.90;;;;;;4236156;27;20036;-86
2023/05/09 03:24:36;;;;;;;51.60;21.23;;;15.00;99.90;;;;;;4242152;27;20076;-87
2023/05/09 03:26:37;;;;;;;55.17;22.67;;;15.00;99.90;;;;;;4244249;27;20411;-86
2023/05/09 03:28:39;;;;;;;56.58;23.20;;;14.90;99.90;;;;;;4223534;28;20051;-86
2023/05/09 03:30:40;;;;;;;56.75;22.48;;;14.90;99.90;;;;;;4217662;28;20040;-86
2023/05/09 03:32:42;;;;;;;54.15;22.70;;;14.90;99.90;;;;;;4218489;28;20109;-86
2023/05/09 03:34:42;;;;;;;56.40;22.88;;;14.90;99.90;;;;;;4240256;27;20489;-86
2023/05/09 03:36:43;;;;;;;63.10;24.90;;;14.90;99.90;;;;;;4241565;27;20051;-86
2023/05/09 03:38:45;;;;;;;60.63;22.90;;;14.90;99.90;;;;;;4235608;27;20043;-87
2023/05/09 03:40:46;;;;;;;55.65;23.00;;;14.90;99.90;;;;;;4236807;27;20094;-87
2023/05/09 03:42:47;;;;;;;49.28;22.13;;;14.90;99.90;;;;;;4207609;28;20036;-87
2023/05/09 03:44:47;;;;;;;61.70;23.27;;;14.90;99.90;;;;;;4240717;27;20085;-87
2023/05/09 03:46:48;;;;;;;47.95;22.80;;;14.90;99.90;;;;;;4217590;28;20131;-87
2023/05/09 03:48:49;;;;;;;59.25;25.65;;;14.80;99.90;;;;;;4220438;28;20043;-86
2023/05/09 03:50:50;;;;;;;57.25;22.25;;;14.90;99.90;;;;;;4207930;28;20047;-86
2023/05/09 03:52:51;;;;;;;60.28;23.45;;;14.80;99.90;;;;;;4230577;28;20051;-87
2023/05/09 03:54:52;;;;;;;62.78;25.02;;;14.90;99.90;;;;;;4224270;28;20123;-86
2023/05/09 03:56:53;;;;;;;55.58;23.38;;;14.80;99.90;;;;;;4237162;28;20047;-86
2023/05/09 03:58:55;;;;;;;59.20;23.52;;;14.80;99.90;;;;;;4224386;28;20573;-86
2023/05/09 04:00:56;;;;;;;59.60;23.55;;;14.80;99.90;;;;;;4236903;28;20043;-86
2023/05/09 04:02:57;;;;;;;56.97;23.55;;;14.80;99.90;;;;;;4237789;28;20043;-86
2023/05/09 04:04:57;;;;;;;53.78;23.42;;;14.80;99.90;;;;;;4209043;28;20459;-87
2023/05/09 04:06:58;;;;;;;64.40;25.10;;;14.80;99.90;;;;;;4213154;28;20167;-87
2023/05/09 04:08:59;;;;;;;67.15;25.58;;;14.80;99.90;;;;;;4242863;28;20132;-86
2023/05/09 04:11:00;;;;;;;57.03;24.17;;;14.80;99.90;;;;;;4235758;28;20059;-86
2023/05/09 04:13:00;;;;;;;53.83;24.05;;;14.80;99.90;;;;;;4235894;28;20398;-86
2023/05/09 04:15:01;;;;;;;55.00;23.25;;;14.80;99.90;;;;;;4244387;28;20042;-86
2023/05/09 04:17:03;;;;;;;63.42;24.15;;;14.80;99.90;;;;;;4222749;28;20043;-87
2023/05/09 04:19:06;;;;;;;62.47;24.92;;;14.80;99.90;;;;;;4230251;28;20500;-87
2023/05/09 04:21:07;;;;;;;59.22;23.38;;;14.90;99.90;;;;;;4217397;28;20040;-87
2023/05/09 04:23:07;;;;;;;61.58;25.58;;;14.90;99.90;;;;;;4216746;28;20044;-87
2023/05/09 04:25:11;;;;;;;68.07;25.13;;;14.90;99.90;;;;;;4235878;28;20151;-87
2023/05/09 04:27:11;;;;;;;60.20;25.40;;;14.90;99.90;;;;;;4238629;28;20052;-87
2023/05/09 04:29:12;;;;;;;57.90;24.85;;;14.90;99.90;;;;;;4225842;28;20064;-87
2023/05/09 04:31:13;;;;;;;58.58;24.92;;;14.90;99.90;;;;;;4204014;28;20080;-86
2023/05/09 04:33:15;;;;;;;61.20;26.00;;;14.90;99.90;;;;;;4245690;28;20046;-87
2023/05/09 04:35:16;;;;;;;63.97;26.67;;;14.90;99.90;;;;;;4214172;28;20056;-87
2023/05/09 04:37:18;;;;;;;59.58;23.75;;;14.80;99.90;;;;;;4216804;28;20043;-86
2023/05/09 04:39:18;;;;;;;62.65;26.38;;;14.90;99.90;;;;;;4225855;28;20048;-87
2023/05/09 04:41:20;;;;;;;59.58;25.75;;;14.90;99.90;;;;;;4225333;28;20389;-87
2023/05/09 04:43:21;;;;;;;59.58;25.30;;;14.90;99.90;;;;;;4245661;28;20047;-86
2023/05/09 04:45:22;;;;;;;63.85;26.45;;;14.90;99.90;;;;;;4217089;28;20035;-87
2023/05/09 04:47:23;;;;;;;66.35;27.10;;;14.80;99.90;;;;;;4240600;28;20112;-87
2023/05/09 04:49:23;;;;;;;61.00;26.50;;;14.90;99.90;;;;;;4234911;28;20044;-87
2023/05/09 04:51:24;;;;;;;67.15;27.58;;;14.90;99.90;;;;;;4247865;27;20035;-87
2023/05/09 04:53:27;;;;;;;63.88;27.73;;;14.90;99.90;;;;;;4238053;27;20399;-87
2023/05/09 04:55:28;;;;;;;67.82;27.95;;;14.90;99.90;;;;;;4229874;28;20036;-87
2023/05/09 04:57:29;;;;;;;56.35;26.63;;;14.90;99.90;;;;;;4238045;27;20040;-87
2023/05/09 04:59:31;;;;;;;66.13;26.35;;;14.90;99.90;;;;;;4227144;28;20043;-87
2023/05/09 05:01:31;;;;;;;55.40;25.75;;;14.90;99.90;;;;;;4248605;27;20047;-87
2023/05/09 05:03:32;;;;;;;65.07;26.80;;;15.00;99.90;;;;;;4216762;28;20040;-87
2023/05/09 05:05:33;;;;;;;69.40;25.17;;;15.00;99.90;;;;;;4228021;28;20077;-87
2023/05/09 05:07:34;;;;;;;60.60;25.63;;;15.00;99.90;;;;;;4231322;28;20058;-88
2023/05/09 05:09:36;;;;;;;60.80;26.38;;;15.00;99.90;;;;;;4218284;28;20075;-87
2023/05/09 05:11:36;;;;;;;60.28;25.30;;;15.00;99.90;;;;;;4248381;27;20019;-87
2023/05/09 05:13:37;;;;;;;63.65;26.15;;;15.10;99.90;;;;;;4238248;27;20134;-86
2023/05/09 05:15:38;;;;;;;58.00;25.88;;;15.10;99.90;;;;;;4238191;27;20550;-88
2023/05/09 05:17:39;;;;;;;59.83;25.08;;;15.10;99.90;;;;;;4245282;27;20040;-87
2023/05/09 05:19:39;;;;;;;58.70;25.38;;;15.10;99.90;;;;;;4238845;27;20030;-86
2023/05/09 05:21:40;;;;;;;54.80;25.60;;;15.10;99.90;;;;;;4238618;27;20078;-85
2023/05/09 05:23:41;;;;;;;68.07;29.08;;;15.10;99.90;;;;;;4246911;27;20178;-86
2023/05/09 05:25:41;;;;;;;63.85;26.63;;;15.20;99.90;;;;;;4244053;27;20043;-86
2023/05/09 05:27:42;;;;;;;63.47;27.63;;;15.20;99.90;;;;;;4238255;27;20046;-86
2023/05/09 05:29:43;;;;;;;63.28;27.80;;;15.20;99.90;;;;;;4237702;27;20473;-86
2023/05/09 05:31:46;;;;;;;65.93;29.65;;;15.20;99.90;;;;;;4247919;27;20117;-86
2023/05/09 05:33:46;;;;;;;66.25;27.70;;;15.20;99.90;;;;;;4231475;28;20594;-86
2023/05/09 05:35:47;;;;;;;58.42;27.55;;;15.20;99.90;;;;;;4234427;27;20040;-86
2023/05/09 05:37:49;;;;;;;52.63;25.13;;;15.30;99.90;;;;;;4248392;27;20518;-86
2023/05/09 05:39:50;;;;;;;50.63;23.95;;;15.30;99.90;;;;;;4249853;27;20502;-86
2023/05/09 05:41:51;;;;;;;49.63;24.58;;;15.20;99.90;;;;;;4238740;27;20023;-86
2023/05/09 05:43:52;;;;;;;46.13;22.95;;;15.20;99.90;;;;;;4247449;27;20040;-86
2023/05/09 05:45:53;;;;;;;48.85;23.83;;;15.20;99.90;;;;;;4246447;27;20047;-87
2023/05/09 05:47:55;;;;;;;46.60;22.17;;;15.10;99.90;;;;;;4249290;27;20039;-86
2023/05/09 05:49:56;;;;;;;47.03;22.48;;;15.10;99.90;;;;;;4238551;27;20048;-86
2023/05/09 05:51:58;;;;;;;47.13;21.95;;;14.80;99.90;;;;;;4222142;28;20055;-86
2023/05/09 05:53:58;;;;;;;40.00;20.15;;;15.10;99.90;;;;;;4218551;28;20051;-86
2023/05/09 05:55:59;;;;;;;36.42;19.95;;;15.10;99.90;;;;;;4226915;28;20535;-86
2023/05/09 05:58:00;;;;;;;41.97;20.67;;;15.10;99.90;;;;;;4227933;28;20135;-85
2023/05/09 06:00:10;;;;;;;32.38;16.88;;;15.10;99.90;;;;;;4229128;28;20040;-85
2023/05/09 06:02:12;;;;;;;33.15;16.10;;;15.10;99.90;;;;;;4237290;27;20126;-87
2023/05/09 06:04:13;;;;;;;31.42;16.67;;;15.10;99.90;;;;;;4201669;28;20484;-87
2023/05/09 06:06:13;;;;;;;27.17;15.93;;;15.10;99.90;;;;;;4245129;27;20047;-87
2023/05/09 06:08:14;;;;;;;29.15;15.82;;;15.10;99.90;;;;;;4216716;28;20043;-87
2023/05/09 06:10:16;;;;;;;32.08;16.48;;;15.10;99.90;;;;;;4203286;28;20472;-87
2023/05/09 06:12:18;;;;;;;28.85;16.52;;;15.10;99.90;;;;;;4233580;28;20435;-87
2023/05/09 06:14:18;;;;;;;30.25;15.75;;;15.10;99.90;;;;;;4232162;28;20052;-87
2023/05/09 06:16:20;;;;;;;29.00;16.55;;;15.10;99.90;;;;;;4251566;27;20095;-87
2023/05/09 06:18:20;;;;;;;38.03;16.83;;;15.10;99.90;;;;;;4233060;28;20499;-88
2023/05/09 06:20:21;;;;;;;29.17;16.40;;;15.20;99.90;;;;;;4226896;28;20038;-87
2023/05/09 06:22:22;;;;;;;28.48;16.65;;;15.20;99.90;;;;;;4251203;27;20062;-87
2023/05/09 06:24:23;;;;;;;28.90;16.90;;;15.20;99.90;;;;;;4250015;27;20122;-87
2023/05/09 06:26:25;;;;;;;34.00;17.20;;;15.30;99.90;;;;;;4241752;27;20043;-87
2023/05/09 06:28:25;;;;;;;29.45;16.20;;;15.30;99.90;;;;;;4233041;28;20054;-88
2023/05/09 06:30:27;;;;;;;30.88;18.05;;;15.30;99.90;;;;;;4215704;28;20408;-86
2023/05/09 06:32:28;;;;;;;32.20;17.20;;;15.30;99.90;;;;;;4235253;28;20035;-88
2023/05/09 06:34:28;;;;;;;30.58;16.70;;;15.30;99.90;;;;;;4233682;28;20488;-87
2023/05/09 06:36:31;;;;;;;30.83;17.00;;;15.40;99.90;;;;;;4234386;28;20101;-88
2023/05/09 06:38:33;;;;;;;32.17;17.05;;;15.40;99.90;;;;;;4234028;28;20507;-88
2023/05/09 06:40:34;;;;;;;33.03;17.63;;;15.40;99.90;;;;;;4234090;28;20391;-87
2023/05/09 06:42:36;;;;;;;29.13;17.65;;;15.50;99.90;;;;;;4214861;28;20193;-87
2023/05/09 06:44:37;;;;;;;33.78;18.38;;;15.40;99.90;;;;;;4233942;28;20043;-87
2023/05/09 06:46:38;;;;;;;31.83;16.30;;;15.40;99.90;;;;;;4238147;27;20050;-86
2023/05/09 06:48:39;;;;;;;34.97;17.58;;;15.40;99.90;;;;;;4249929;27;20478;-87
2023/05/09 06:50:39;;;;;;;35.22;17.98;;;15.40;99.90;;;;;;4249867;27;20039;-87
2023/05/09 06:52:40;;;;;;;36.15;17.38;;;15.40;99.90;;;;;;4249704;27;20055;-88
2023/05/09 06:54:41;;;;;;;37.70;18.42;;;15.40;99.90;;;;;;4209670;28;20041;-87
2023/05/09 06:56:42;;;;;;;36.65;17.95;;;15.40;99.90;;;;;;4232402;28;20044;-88
2023/05/09 06:58:43;;;;;;;37.80;19.38;;;15.40;99.90;;;;;;4237484;27;20046;-88
2023/05/09 07:00:44;;;;;;;37.55;19.05;;;15.40;99.90;;;;;;4232054;28;20037;-88
2023/05/09 07:02:45;;;;;;;39.90;19.42;;;15.50;99.90;;;;;;4229746;28;20078;-88
2023/05/09 07:04:46;;;;;;;43.20;18.85;;;15.50;99.90;;;;;;4233144;28;20051;-88
2023/05/09 07:06:46;;;;;;;37.75;19.52;;;15.50;99.90;;;;;;4198141;28;20058;-88
2023/05/09 07:08:47;;;;;;;41.42;19.15;;;15.40;99.90;;;;;;4214811;28;20056;-88
2023/05/09 07:10:49;;;;;;;51.45;22.13;;;15.40;99.90;;;;;;4234954;27;20402;-88
2023/05/09 07:12:50;;;;;;;41.75;19.40;;;15.40;99.90;;;;;;4250353;27;20050;-88
2023/05/09 07:14:50;;;;;;;41.03;19.70;;;15.40;99.90;;;;;;4249530;27;20039;-88
2023/05/09 07:16:53;;;;;;;35.35;18.70;;;15.50;99.90;;;;;;4251345;27;20051;-88
2023/05/09 07:18:54;;;;;;;35.97;18.55;;;15.50;99.90;;;;;;4250262;27;20046;-88
2023/05/09 07:20:55;;;;;;;41.53;20.05;;;15.50;99.90;;;;;;4249895;27;20047;-88
2023/05/09 07:22:57;;;;;;;39.67;18.60;;;15.40;99.90;;;;;;4230495;28;20079;-87
2023/05/09 07:25:01;;;;;;;39.83;19.65;;;15.50;99.90;;;;;;4218148;28;20537;-86
2023/05/09 07:27:04;;;;;;;36.92;19.05;;;14.80;99.90;;;;;;4235825;28;20039;-86
2023/05/09 07:29:06;;;;;;;39.53;19.80;;;15.50;99.90;;;;;;4247900;27;20130;-85
2023/05/09 07:31:11;;;;;;;42.35;20.58;;;15.50;99.90;;;;;;4238859;27;20036;-85
2023/05/09 07:33:11;;;;;;;39.75;20.58;;;15.50;99.90;;;;;;4242726;27;20043;-86
2023/05/09 07:35:12;;;;;;;43.80;20.42;;;15.50;99.90;;;;;;4245653;27;20547;-86
2023/05/09 07:37:13;;;;;;;44.03;21.58;;;15.60;99.90;;;;;;4231972;28;20079;-87
2023/05/09 07:39:15;;;;;;;41.22;20.73;;;15.60;99.90;;;;;;4197353;28;20060;-86
2023/05/09 07:41:16;;;;;;;43.53;20.13;;;15.60;99.90;;;;;;4247922;27;20055;-86
2023/05/09 07:43:16;;;;;;;42.13;20.10;;;15.70;99.90;;;;;;4249360;27;20043;-85
2023/05/09 07:45:18;;;;;;;39.15;21.65;;;15.70;99.90;;;;;;4248657;27;20380;-85
2023/05/09 07:47:19;;;;;;;50.15;23.52;;;15.70;99.90;;;;;;4250092;27;20043;-85
2023/05/09 07:49:20;;;;;;;42.97;22.77;;;15.80;99.90;;;;;;4249877;28;20399;-85
2023/05/09 07:51:21;;;;;;;44.72;21.98;;;15.80;99.90;;;;;;4246280;28;20039;-85
2023/05/09 07:53:21;;;;;;;41.10;21.83;;;15.90;99.90;;;;;;4232539;28;20100;-87
2023/05/09 07:55:23;;;;;;;44.95;21.38;;;15.90;99.90;;;;;;4249396;28;20123;-86
2023/05/09 07:57:24;;;;;;;42.92;22.17;;;16.00;99.90;;;;;;4248297;28;20047;-86
2023/05/09 07:59:25;;;;;;;47.55;21.15;;;16.00;99.90;;;;;;4241722;28;20444;-86
2023/05/09 08:01:26;;;;;;;41.63;21.10;;;16.00;99.90;;;;;;4247198;28;20522;-86
2023/05/09 08:03:28;;;;;;;46.30;21.38;;;16.00;99.90;;;;;;4215467;28;20516;-86
2023/05/09 08:05:29;;;;;;;40.20;21.30;;;16.10;99.90;;;;;;4243054;28;20510;-86
2023/05/09 08:07:30;;;;;;;43.15;21.15;;;16.10;99.90;;;;;;4250595;28;20043;-86
2023/05/09 08:09:32;;;;;;;46.17;23.27;;;16.10;99.90;;;;;;4232587;28;20031;-86
2023/05/09 08:11:34;;;;;;;43.15;21.60;;;16.10;99.90;;;;;;4232294;28;20047;-86
2023/05/09 08:13:36;;;;;;;42.63;22.27;;;16.10;99.90;;;;;;4249154;28;20051;-87
2023/05/09 08:15:38;;;;;;;45.20;22.95;;;16.10;99.90;;;;;;4250979;28;20506;-87
2023/05/09 08:17:39;;;;;;;43.83;21.48;;;16.10;99.90;;;;;;4250485;28;20046;-87
2023/05/09 08:19:40;;;;;;;46.33;23.60;;;16.10;99.90;;;;;;4250201;27;20492;-87
2023/05/09 08:21:40;;;;;;;49.13;23.38;;;16.20;99.90;;;;;;4248967;28;20051;-86
2023/05/09 08:23:41;;;;;;;50.97;24.27;;;16.20;99.90;;;;;;4236877;28;20055;-86
2023/05/09 08:25:42;;;;;;;47.85;24.45;;;16.20;99.90;;;;;;4234302;28;20043;-86
2023/05/09 08:27:44;;;;;;;53.45;24.70;;;16.20;99.90;;;;;;4241876;27;20035;-87
2023/05/09 08:29:44;;;;;;;52.72;25.63;;;16.30;99.90;;;;;;4218054;28;20086;-87
2023/05/09 08:31:45;;;;;;;55.88;25.33;;;16.30;99.90;;;;;;4244187;27;20047;-86
2023/05/09 08:33:46;;;;;;;58.80;25.67;;;16.30;99.90;;;;;;4252919;27;20555;-87
2023/05/09 08:35:53;;;;;;;63.78;25.45;;;16.30;99.90;;;;;;4252721;27;20039;-86
2023/05/09 08:37:53;;;;;;;54.70;26.17;;;16.30;99.90;;;;;;4253915;27;20047;-86
2023/05/09 08:39:54;;;;;;;55.55;25.98;;;16.30;99.90;;;;;;4253885;27;20093;-86
2023/05/09 08:41:59;;;;;;;57.00;25.70;;;16.30;99.90;;;;;;4217728;28;20066;-88
2023/05/09 08:43:59;;;;;;;62.55;28.42;;;16.30;99.90;;;;;;4254347;27;20035;-88
2023/05/09 08:46:05;;;;;;;58.35;25.70;;;16.30;99.90;;;;;;4253049;27;20504;-86
2023/05/09 08:48:08;;;;;;;59.75;25.30;;;16.30;99.90;;;;;;4235686;28;20051;-87
2023/05/09 08:50:10;;;;;;;56.25;25.98;;;16.30;99.90;;;;;;4254384;27;20039;-87
2023/05/09 08:52:11;;;;;;;63.95;25.98;;;16.40;99.90;;;;;;4227072;28;20076;-86
2023/05/09 08:54:12;;;;;;;56.55;26.08;;;16.40;99.90;;;;;;4231407;28;20531;-86
2023/05/09 08:56:14;;;;;;;58.03;26.55;;;16.40;99.90;;;;;;4253981;27;20047;-88
2023/05/09 08:58:15;;;;;;;59.60;25.15;;;16.50;99.90;;;;;;4236896;28;20058;-87
2023/05/09 09:00:19;;;;;;;55.50;25.15;;;16.50;99.90;;;;;;4218259;28;20060;-87
2023/05/09 09:02:20;;;;;;;57.10;25.27;;;16.50;99.90;;;;;;4234968;28;20054;-87
2023/05/09 09:04:21;;;;;;;58.00;23.90;;;16.50;99.90;;;;;;4252784;27;20047;-87
2023/05/09 09:06:24;;;;;;;62.25;25.80;;;16.60;99.90;;;;;;4219509;28;20058;-87
2023/05/09 09:08:26;;;;;;;57.13;25.23;;;16.70;99.90;;;;;;4220902;28;20059;-87
2023/05/09 09:10:30;;;;;;;54.55;25.38;;;16.70;99.90;;;;;;4235150;28;20502;-86
2023/05/09 09:12:32;;;;;;;60.47;26.92;;;16.70;99.90;;;;;;4201150;28;20052;-88
2023/05/09 09:14:38;;;;;;;50.03;23.13;;;16.70;99.90;;;;;;4200022;28;20049;-88
2023/05/09 09:16:42;;;;;;;51.42;24.38;;;16.80;99.90;;;;;;4218435;28;20514;-87
2023/05/09 09:18:45;;;;;;;53.42;24.45;;;16.80;99.90;;;;;;4217920;28;20135;-87
2023/05/09 09:21:06;;;;;;;55.97;25.20;;;16.80;99.90;;;;;;4227602;28;20165;-88
2023/05/09 09:23:09;;;;;;;55.67;23.90;;;16.90;99.90;;;;;;4249316;27;20522;-88
2023/05/09 09:25:11;;;;;;;49.85;23.95;;;17.10;99.90;;;;;;4253688;27;20058;-88
2023/05/09 09:27:11;;;;;;;56.50;24.77;;;17.20;99.90;;;;;;4220064;28;20491;-88
2023/05/09 09:29:14;;;;;;;48.88;23.08;;;17.30;99.90;;;;;;4231718;28;20044;-87
2023/05/09 09:31:22;;;;;;;49.03;23.17;;;17.30;99.90;;;;;;4236478;28;20423;-87
2023/05/09 09:33:26;;;;;;;48.38;22.55;;;17.40;99.90;;;;;;4235820;28;20043;-88
2023/05/09 09:35:26;;;;;;;55.13;23.13;;;17.40;99.90;;;;;;4234476;28;20127;-87
2023/05/09 09:37:27;;;;;;;51.58;22.92;;;17.40;99.90;;;;;;4232346;28;20051;-86
2023/05/09 09:39:28;;;;;;;50.83;21.73;;;17.40;99.90;;;;;;4216852;28;20515;-88
2023/05/09 09:41:33;;;;;;;45.22;19.92;;;17.40;99.90;;;;;;4233842;28;20047;-89
2023/05/09 09:43:34;;;;;;;44.70;21.98;;;17.40;99.90;;;;;;4252200;27;20399;-88
2023/05/09 09:45:37;;;;;;;44.60;21.25;;;17.50;99.90;;;;;;4215930;28;20134;-87
2023/05/09 09:47:38;;;;;;;42.63;20.30;;;17.50;99.90;;;;;;4250753;27;20411;-87
2023/05/09 09:49:45;;;;;;;47.17;20.83;;;17.60;99.90;;;;;;4225035;28;20460;-89
2023/05/09 09:51:57;;;;;;;41.42;19.52;;;17.60;99.90;;;;;;4230589;27;20055;-86
2023/05/09 09:54:01;;;;;;;42.78;20.23;;;17.60;99.90;;;;;;4232916;28;20477;-89
2023/05/09 09:56:02;;;;;;;44.28;19.00;;;17.60;99.90;;;;;;4237581;27;20078;-89
2023/05/09 09:58:16;;;;;;;37.83;18.73;;;17.60;99.90;;;;;;4229226;28;20444;-89
2023/05/09 10:00:26;;;;;;;42.88;19.38;;;17.60;99.90;;;;;;4232444;28;20044;-89
2023/05/09 10:02:28;;;;;;;35.72;18.33;;;17.60;99.90;;;;;;4217553;28;20036;-90
2023/05/09 10:04:32;;;;;;;37.88;19.77;;;17.50;99.90;;;;;;4234180;28;20048;-90
2023/05/09 10:06:33;;;;;;;39.67;18.83;;;17.50;99.90;;;;;;4235085;28;20054;-89
2023/05/09 10:08:33;;;;;;;36.80;18.15;;;17.50;99.90;;;;;;4199884;28;20048;-89
2023/05/09 10:10:35;;;;;;;42.03;19.02;;;17.50;99.90;;;;;;4235158;28;20115;-89
2023/05/09 10:12:36;;;;;;;40.47;18.58;;;17.50;99.90;;;;;;4238877;27;20042;-89
2023/05/09 10:14:41;;;;;;;37.30;18.48;;;16.90;99.90;;;;;;4233791;28;20399;-89
2023/05/09 10:16:42;;;;;;;37.22;17.25;;;17.40;99.90;;;;;;4217580;28;20105;-89
2023/05/09 10:18:44;;;;;;;41.53;18.30;;;17.40;99.90;;;;;;4215335;28;20043;-88
2023/05/09 10:20:46;;;;;;;35.30;17.70;;;17.50;99.90;;;;;;4234326;28;20098;-88